sensor_id;sensor_type;location;lat;lon;timestamp;temperature;humidity
42201;DHT22;27869;51.442;7.540;2022-12-04T00:01:58;1.30;99.90
42201;DHT22;27869;51.442;7.540;2022-12-04T00:04:25;1.30;99.90
42201;DHT22;27869;51.442;7.540;2022-12-04T00:06:53;1.30;99.90
42201;DHT22;27869;51.442;7.540;2022-12-04T00:09:21;1.30;99.90
42201;DHT22;27869;51.442;7.540;2022-12-04T00:11:49;1.30;99.90
42201;DHT22;27869;51.442;7.540;2022-12-04T00:14:16;1.30;99.90
42201;DHT22;27869;51.442;7.540;2022-12-04T00:16:43;1.30;99.90
42201;DHT22;27869;51.442;7.540;2022-12-04T00:19:10;1.30;99.90
42201;DHT22;27869;51.442;7.540;2022-12-04T00:21:37;1.30;99.90
42201;DHT22;27869;51.442;7.540;2022-12-04T00:24:04;1.30;99.90
42201;DHT22;27869;51.442;7.540;2022-12-04T00:26:32;1.30;99.90
42201;DHT22;27869;51.442;7.540;2022-12-04T00:29:01;1.30;99.90
42201;DHT22;27869;51.442;7.540;2022-12-04T00:31:29;1.30;99.90
42201;DHT22;27869;51.442;7.540;2022-12-04T00:33:57;1.30;99.90
42201;DHT22;27869;51.442;7.540;2022-12-04T00:36:25;1.30;99.90
42201;DHT22;27869;51.442;7.540;2022-12-04T00:38:53;1.30;99.90
42201;DHT22;27869;51.442;7.540;2022-12-04T00:41:22;1.30;99.90
42201;DHT22;27869;51.442;7.540;2022-12-04T00:43:49;1.30;99.90
42201;DHT22;27869;51.442;7.540;2022-12-04T00:46:17;1.30;99.90
42201;DHT22;27869;51.442;7.540;2022-12-04T00:48:45;1.30;99.90
42201;DHT22;27869;51.442;7.540;2022-12-04T00:51:13;1.30;99.90
42201;DHT22;27869;51.442;7.540;2022-12-04T00:53:40;1.30;99.90
42201;DHT22;27869;51.442;7.540;2022-12-04T00:56:09;1.30;99.90
42201;DHT22;27869;51.442;7.540;2022-12-04T00:58:37;1.30;99.90
42201;DHT22;27869;51.442;7.540;2022-12-04T01:01:06;1.30;99.90
42201;DHT22;27869;51.442;7.540;2022-12-04T01:03:34;1.30;99.90
42201;DHT22;27869;51.442;7.540;2022-12-04T01:06:02;1.30;99.90
42201;DHT22;27869;51.442;7.540;2022-12-04T01:08:29;1.30;99.90
42201;DHT22;27869;51.442;7.540;2022-12-04T01:10:56;1.30;99.90
42201;DHT22;27869;51.442;7.540;2022-12-04T01:13:24;1.30;99.90
42201;DHT22;27869;51.442;7.540;2022-12-04T01:15:51;1.30;99.90
42201;DHT22;27869;51.442;7.540;2022-12-04T01:18:18;1.30;99.90
42201;DHT22;27869;51.442;7.540;2022-12-04T01:20:48;1.30;99.90
42201;DHT22;27869;51.442;7.540;2022-12-04T01:23:15;1.30;99.90
42201;DHT22;27869;51.442;7.540;2022-12-04T01:25:49;1.30;99.90
42201;DHT22;27869;51.442;7.540;2022-12-04T01:28:17;1.30;99.90
42201;DHT22;27869;51.442;7.540;2022-12-04T01:30:44;1.30;99.90
42201;DHT22;27869;51.442;7.540;2022-12-04T01:33:11;1.30;99.90
42201;DHT22;27869;51.442;7.540;2022-12-04T01:35:37;1.30;99.90
42201;DHT22;27869;51.442;7.540;2022-12-04T01:38:06;1.30;99.90
42201;DHT22;27869;51.442;7.540;2022-12-04T01:40:32;1.30;99.90
42201;DHT22;27869;51.442;7.540;2022-12-04T01:42:59;1.30;99.90
42201;DHT22;27869;51.442;7.540;2022-12-04T01:45:40;1.30;99.90
42201;DHT22;27869;51.442;7.540;2022-12-04T01:48:16;1.30;99.90
42201;DHT22;27869;51.442;7.540;2022-12-04T01:50:45;1.30;99.90
42201;DHT22;27869;51.442;7.540;2022-12-04T01:53:15;1.30;99.90
42201;DHT22;27869;51.442;7.540;2022-12-04T01:55:43;1.30;99.90
42201;DHT22;27869;51.442;7.540;2022-12-04T01:58:11;1.30;99.90
42201;DHT22;27869;51.442;7.540;2022-12-04T02:00:39;1.30;99.90
42201;DHT22;27869;51.442;7.540;2022-12-04T02:03:06;1.20;99.90
42201;DHT22;27869;51.442;7.540;2022-12-04T02:05:32;1.30;99.90
42201;DHT22;27869;51.442;7.540;2022-12-04T02:08:02;1.30;99.90
42201;DHT22;27869;51.442;7.540;2022-12-04T02:10:37;1.20;99.90
42201;DHT22;27869;51.442;7.540;2022-12-04T02:13:13;1.20;99.90
42201;DHT22;27869;51.442;7.540;2022-12-04T02:15:46;1.20;99.90
42201;DHT22;27869;51.442;7.540;2022-12-04T02:18:20;1.20;99.90
42201;DHT22;27869;51.442;7.540;2022-12-04T02:20:54;1.30;99.90
42201;DHT22;27869;51.442;7.540;2022-12-04T02:23:56;1.20;99.90
42201;DHT22;27869;51.442;7.540;2022-12-04T02:26:36;1.20;99.90
42201;DHT22;27869;51.442;7.540;2022-12-04T02:29:09;1.20;99.90
42201;DHT22;27869;51.442;7.540;2022-12-04T02:31:42;1.20;99.90
42201;DHT22;27869;51.442;7.540;2022-12-04T02:34:12;1.20;99.90
42201;DHT22;27869;51.442;7.540;2022-12-04T02:36:43;1.20;99.90
42201;DHT22;27869;51.442;7.540;2022-12-04T02:39:18;1.20;99.90
42201;DHT22;27869;51.442;7.540;2022-12-04T02:41:52;1.20;99.90
42201;DHT22;27869;51.442;7.540;2022-12-04T02:44:24;1.10;99.90
42201;DHT22;27869;51.442;7.540;2022-12-04T02:46:55;1.10;99.90
42201;DHT22;27869;51.442;7.540;2022-12-04T02:49:27;1.10;99.90
42201;DHT22;27869;51.442;7.540;2022-12-04T02:51:57;1.10;99.90
42201;DHT22;27869;51.442;7.540;2022-12-04T02:54:30;1.10;99.90
42201;DHT22;27869;51.442;7.540;2022-12-04T02:56:59;1.00;99.90
42201;DHT22;27869;51.442;7.540;2022-12-04T02:59:31;1.10;99.90
42201;DHT22;27869;51.442;7.540;2022-12-04T03:02:02;1.10;99.90
42201;DHT22;27869;51.442;7.540;2022-12-04T03:04:32;1.10;99.90
42201;DHT22;27869;51.442;7.540;2022-12-04T03:07:03;1.00;99.90
42201;DHT22;27869;51.442;7.540;2022-12-04T03:09:34;1.00;99.90
42201;DHT22;27869;51.442;7.540;2022-12-04T03:12:06;1.00;99.90
42201;DHT22;27869;51.442;7.540;2022-12-04T03:14:39;1.00;99.90
42201;DHT22;27869;51.442;7.540;2022-12-04T03:17:11;1.00;99.90
42201;DHT22;27869;51.442;7.540;2022-12-04T03:19:44;1.00;99.90
42201;DHT22;27869;51.442;7.540;2022-12-04T03:22:16;1.00;99.90
42201;DHT22;27869;51.442;7.540;2022-12-04T03:24:47;1.00;99.90
42201;DHT22;27869;51.442;7.540;2022-12-04T03:27:23;1.00;99.90
42201;DHT22;27869;51.442;7.540;2022-12-04T03:29:57;1.00;99.90
42201;DHT22;27869;51.442;7.540;2022-12-04T03:32:29;1.00;99.90
42201;DHT22;27869;51.442;7.540;2022-12-04T03:35:01;1.00;99.90
42201;DHT22;27869;51.442;7.540;2022-12-04T03:37:34;1.00;99.90
42201;DHT22;27869;51.442;7.540;2022-12-04T03:40:06;1.00;99.90
42201;DHT22;27869;51.442;7.540;2022-12-04T03:42:41;1.00;99.90
42201;DHT22;27869;51.442;7.540;2022-12-04T03:45:18;1.00;99.90
42201;DHT22;27869;51.442;7.540;2022-12-04T03:47:52;1.00;99.90
42201;DHT22;27869;51.442;7.540;2022-12-04T03:50:27;1.00;99.90
42201;DHT22;27869;51.442;7.540;2022-12-04T03:52:59;1.00;99.90
42201;DHT22;27869;51.442;7.540;2022-12-04T03:55:33;1.00;99.90
42201;DHT22;27869;51.442;7.540;2022-12-04T03:58:05;1.00;99.90
42201;DHT22;27869;51.442;7.540;2022-12-04T04:00:37;1.00;99.90
42201;DHT22;27869;51.442;7.540;2022-12-04T04:03:08;1.00;99.90
42201;DHT22;27869;51.442;7.540;2022-12-04T04:05:40;1.10;99.90
42201;DHT22;27869;51.442;7.540;2022-12-04T04:08:14;1.10;99.90
42201;DHT22;27869;51.442;7.540;2022-12-04T04:10:52;1.10;99.90
42201;DHT22;27869;51.442;7.540;2022-12-04T04:13:23;1.10;99.90
42201;DHT22;27869;51.442;7.540;2022-12-04T04:16:13;1.10;99.90
42201;DHT22;27869;51.442;7.540;2022-12-04T04:18:59;1.10;99.90
42201;DHT22;27869;51.442;7.540;2022-12-04T04:21:48;1.10;99.90
42201;DHT22;27869;51.442;7.540;2022-12-04T04:24:40;1.10;99.90
42201;DHT22;27869;51.442;7.540;2022-12-04T04:27:08;1.10;99.90
42201;DHT22;27869;51.442;7.540;2022-12-04T04:29:35;1.10;99.90
42201;DHT22;27869;51.442;7.540;2022-12-04T04:32:09;1.10;99.90
42201;DHT22;27869;51.442;7.540;2022-12-04T04:34:43;1.10;99.90
42201;DHT22;27869;51.442;7.540;2022-12-04T04:37:19;1.10;99.90
42201;DHT22;27869;51.442;7.540;2022-12-04T04:39:54;1.20;99.90
42201;DHT22;27869;51.442;7.540;2022-12-04T04:42:25;1.20;99.90
42201;DHT22;27869;51.442;7.540;2022-12-04T04:44:58;1.20;99.90
42201;DHT22;27869;51.442;7.540;2022-12-04T04:47:32;1.20;99.90
42201;DHT22;27869;51.442;7.540;2022-12-04T04:50:02;1.20;99.90
42201;DHT22;27869;51.442;7.540;2022-12-04T04:52:30;1.20;99.90
42201;DHT22;27869;51.442;7.540;2022-12-04T04:54:59;1.20;99.90
42201;DHT22;27869;51.442;7.540;2022-12-04T04:57:27;1.20;99.90
42201;DHT22;27869;51.442;7.540;2022-12-04T04:59:54;1.20;99.90
42201;DHT22;27869;51.442;7.540;2022-12-04T05:02:22;1.20;99.90
42201;DHT22;27869;51.442;7.540;2022-12-04T05:04:51;1.20;99.90
42201;DHT22;27869;51.442;7.540;2022-12-04T05:07:18;1.20;99.90
42201;DHT22;27869;51.442;7.540;2022-12-04T05:09:45;1.20;99.90
42201;DHT22;27869;51.442;7.540;2022-12-04T05:12:12;1.20;99.90
42201;DHT22;27869;51.442;7.540;2022-12-04T05:14:38;1.20;99.90
42201;DHT22;27869;51.442;7.540;2022-12-04T05:17:05;1.20;99.90
42201;DHT22;27869;51.442;7.540;2022-12-04T05:19:33;1.20;99.90
42201;DHT22;27869;51.442;7.540;2022-12-04T05:22:20;1.20;99.90
42201;DHT22;27869;51.442;7.540;2022-12-04T05:24:47;1.20;99.90
42201;DHT22;27869;51.442;7.540;2022-12-04T05:27:14;1.20;99.90
42201;DHT22;27869;51.442;7.540;2022-12-04T05:29:41;1.20;99.90
42201;DHT22;27869;51.442;7.540;2022-12-04T05:32:08;1.20;99.90
42201;DHT22;27869;51.442;7.540;2022-12-04T05:34:35;1.20;99.90
42201;DHT22;27869;51.442;7.540;2022-12-04T05:37:01;1.20;99.90
42201;DHT22;27869;51.442;7.540;2022-12-04T05:39:30;1.20;99.90
42201;DHT22;27869;51.442;7.540;2022-12-04T05:41:56;1.20;99.90
42201;DHT22;27869;51.442;7.540;2022-12-04T05:44:23;1.20;99.90
42201;DHT22;27869;51.442;7.540;2022-12-04T05:46:50;1.20;99.90
42201;DHT22;27869;51.442;7.540;2022-12-04T05:49:17;1.20;99.90
42201;DHT22;27869;51.442;7.540;2022-12-04T05:51:44;1.20;99.90
42201;DHT22;27869;51.442;7.540;2022-12-04T05:54:11;1.20;99.90
42201;DHT22;27869;51.442;7.540;2022-12-04T05:56:39;1.10;99.90
42201;DHT22;27869;51.442;7.540;2022-12-04T05:59:06;1.10;99.90
42201;DHT22;27869;51.442;7.540;2022-12-04T06:01:33;1.20;99.90
42201;DHT22;27869;51.442;7.540;2022-12-04T06:04:00;1.10;99.90
42201;DHT22;27869;51.442;7.540;2022-12-04T06:06:28;1.20;99.90
42201;DHT22;27869;51.442;7.540;2022-12-04T06:08:56;1.20;99.90
42201;DHT22;27869;51.442;7.540;2022-12-04T06:11:25;1.20;99.90
42201;DHT22;27869;51.442;7.540;2022-12-04T06:13:54;1.20;99.90
42201;DHT22;27869;51.442;7.540;2022-12-04T06:16:23;1.20;99.90
42201;DHT22;27869;51.442;7.540;2022-12-04T06:18:51;1.20;99.90
42201;DHT22;27869;51.442;7.540;2022-12-04T06:21:19;1.20;99.90
42201;DHT22;27869;51.442;7.540;2022-12-04T06:23:46;1.20;99.90
42201;DHT22;27869;51.442;7.540;2022-12-04T06:26:13;1.20;99.90
42201;DHT22;27869;51.442;7.540;2022-12-04T06:28:40;1.20;99.90
42201;DHT22;27869;51.442;7.540;2022-12-04T06:31:11;1.20;99.90
42201;DHT22;27869;51.442;7.540;2022-12-04T06:33:39;1.20;99.90
42201;DHT22;27869;51.442;7.540;2022-12-04T06:36:07;1.20;99.90
42201;DHT22;27869;51.442;7.540;2022-12-04T06:38:34;1.20;99.90
42201;DHT22;27869;51.442;7.540;2022-12-04T06:41:02;1.20;99.90
42201;DHT22;27869;51.442;7.540;2022-12-04T06:43:29;1.20;99.90
42201;DHT22;27869;51.442;7.540;2022-12-04T06:46:00;1.30;99.90
42201;DHT22;27869;51.442;7.540;2022-12-04T06:48:29;1.20;99.90
42201;DHT22;27869;51.442;7.540;2022-12-04T06:51:00;1.30;99.90
42201;DHT22;27869;51.442;7.540;2022-12-04T06:53:27;1.20;99.90
42201;DHT22;27869;51.442;7.540;2022-12-04T06:55:55;1.20;99.90
42201;DHT22;27869;51.442;7.540;2022-12-04T06:58:23;1.20;99.90
42201;DHT22;27869;51.442;7.540;2022-12-04T07:00:50;1.20;99.90
42201;DHT22;27869;51.442;7.540;2022-12-04T07:03:17;1.20;99.90
42201;DHT22;27869;51.442;7.540;2022-12-04T07:05:45;1.20;99.90
42201;DHT22;27869;51.442;7.540;2022-12-04T07:08:13;1.20;99.90
42201;DHT22;27869;51.442;7.540;2022-12-04T07:10:41;1.30;99.90
42201;DHT22;27869;51.442;7.540;2022-12-04T07:13:08;1.30;99.90
42201;DHT22;27869;51.442;7.540;2022-12-04T07:15:36;1.30;99.90
42201;DHT22;27869;51.442;7.540;2022-12-04T07:18:04;1.30;99.90
42201;DHT22;27869;51.442;7.540;2022-12-04T07:20:31;1.30;99.90
42201;DHT22;27869;51.442;7.540;2022-12-04T07:22:59;1.30;99.90
42201;DHT22;27869;51.442;7.540;2022-12-04T07:25:26;1.30;99.90
42201;DHT22;27869;51.442;7.540;2022-12-04T07:27:55;1.30;99.90
42201;DHT22;27869;51.442;7.540;2022-12-04T07:30:22;1.30;99.90
42201;DHT22;27869;51.442;7.540;2022-12-04T07:32:49;1.30;99.90
42201;DHT22;27869;51.442;7.540;2022-12-04T07:35:16;1.30;99.90
42201;DHT22;27869;51.442;7.540;2022-12-04T07:37:43;1.30;99.90
42201;DHT22;27869;51.442;7.540;2022-12-04T07:40:12;1.30;99.90
42201;DHT22;27869;51.442;7.540;2022-12-04T07:42:39;1.30;99.90
42201;DHT22;27869;51.442;7.540;2022-12-04T07:45:07;1.30;99.90
42201;DHT22;27869;51.442;7.540;2022-12-04T07:47:34;1.30;99.90
42201;DHT22;27869;51.442;7.540;2022-12-04T07:50:02;1.30;99.90
42201;DHT22;27869;51.442;7.540;2022-12-04T07:52:29;1.30;99.90
42201;DHT22;27869;51.442;7.540;2022-12-04T07:54:56;1.30;99.90
42201;DHT22;27869;51.442;7.540;2022-12-04T07:57:26;1.30;99.90
42201;DHT22;27869;51.442;7.540;2022-12-04T07:59:53;1.30;99.90
42201;DHT22;27869;51.442;7.540;2022-12-04T08:02:20;1.30;99.90
42201;DHT22;27869;51.442;7.540;2022-12-04T08:04:47;1.30;99.90
42201;DHT22;27869;51.442;7.540;2022-12-04T08:07:14;1.30;99.90
42201;DHT22;27869;51.442;7.540;2022-12-04T08:09:41;1.30;99.90
42201;DHT22;27869;51.442;7.540;2022-12-04T08:12:08;1.30;99.90
42201;DHT22;27869;51.442;7.540;2022-12-04T08:14:37;1.30;99.90
42201;DHT22;27869;51.442;7.540;2022-12-04T08:17:04;1.30;99.90
42201;DHT22;27869;51.442;7.540;2022-12-04T08:19:31;1.30;99.90
42201;DHT22;27869;51.442;7.540;2022-12-04T08:21:57;1.30;99.90
42201;DHT22;27869;51.442;7.540;2022-12-04T08:24:24;1.30;99.90
42201;DHT22;27869;51.442;7.540;2022-12-04T08:26:51;1.30;99.90
42201;DHT22;27869;51.442;7.540;2022-12-04T08:29:18;1.30;99.90
42201;DHT22;27869;51.442;7.540;2022-12-04T08:31:46;1.30;99.90
42201;DHT22;27869;51.442;7.540;2022-12-04T08:34:14;1.40;99.90
42201;DHT22;27869;51.442;7.540;2022-12-04T08:36:40;1.40;99.90
42201;DHT22;27869;51.442;7.540;2022-12-04T08:39:08;1.40;99.90
42201;DHT22;27869;51.442;7.540;2022-12-04T08:41:36;1.40;99.90
42201;DHT22;27869;51.442;7.540;2022-12-04T08:44:03;1.40;99.90
42201;DHT22;27869;51.442;7.540;2022-12-04T08:46:30;1.40;99.90
42201;DHT22;27869;51.442;7.540;2022-12-04T08:48:59;1.50;99.90
42201;DHT22;27869;51.442;7.540;2022-12-04T08:51:28;1.50;99.90
42201;DHT22;27869;51.442;7.540;2022-12-04T08:53:56;1.50;99.90
42201;DHT22;27869;51.442;7.540;2022-12-04T08:56:24;1.40;99.90
42201;DHT22;27869;51.442;7.540;2022-12-04T08:58:51;1.40;99.90
42201;DHT22;27869;51.442;7.540;2022-12-04T09:01:18;1.50;99.90
42201;DHT22;27869;51.442;7.540;2022-12-04T09:03:45;1.40;99.90
42201;DHT22;27869;51.442;7.540;2022-12-04T09:06:14;1.40;99.90
42201;DHT22;27869;51.442;7.540;2022-12-04T09:08:41;1.50;99.90
42201;DHT22;27869;51.442;7.540;2022-12-04T09:11:10;1.50;99.90
42201;DHT22;27869;51.442;7.540;2022-12-04T09:13:38;1.50;99.90
42201;DHT22;27869;51.442;7.540;2022-12-04T09:16:07;1.50;99.90
42201;DHT22;27869;51.442;7.540;2022-12-04T09:18:36;1.60;99.90
42201;DHT22;27869;51.442;7.540;2022-12-04T09:21:05;1.60;99.90
42201;DHT22;27869;51.442;7.540;2022-12-04T09:23:34;1.60;99.90
42201;DHT22;27869;51.442;7.540;2022-12-04T09:26:02;1.60;99.90
42201;DHT22;27869;51.442;7.540;2022-12-04T09:28:29;1.60;99.90
42201;DHT22;27869;51.442;7.540;2022-12-04T09:30:57;1.60;99.90
42201;DHT22;27869;51.442;7.540;2022-12-04T09:33:25;1.60;99.90
42201;DHT22;27869;51.442;7.540;2022-12-04T09:35:51;1.60;99.90
42201;DHT22;27869;51.442;7.540;2022-12-04T09:38:19;1.60;99.90
42201;DHT22;27869;51.442;7.540;2022-12-04T09:40:53;1.60;99.90
42201;DHT22;27869;51.442;7.540;2022-12-04T09:43:30;1.60;99.90
42201;DHT22;27869;51.442;7.540;2022-12-04T09:46:02;1.60;99.90
42201;DHT22;27869;51.442;7.540;2022-12-04T09:48:36;1.60;99.90
42201;DHT22;27869;51.442;7.540;2022-12-04T09:51:06;1.60;99.90
42201;DHT22;27869;51.442;7.540;2022-12-04T09:53:45;1.60;99.90
42201;DHT22;27869;51.442;7.540;2022-12-04T09:56:16;1.70;99.90
42201;DHT22;27869;51.442;7.540;2022-12-04T09:58:48;1.60;99.90
42201;DHT22;27869;51.442;7.540;2022-12-04T10:01:20;1.70;99.90
42201;DHT22;27869;51.442;7.540;2022-12-04T10:03:48;1.70;99.90
42201;DHT22;27869;51.442;7.540;2022-12-04T10:06:18;1.70;99.90
42201;DHT22;27869;51.442;7.540;2022-12-04T10:08:50;1.70;99.90
42201;DHT22;27869;51.442;7.540;2022-12-04T10:11:26;1.70;99.90
42201;DHT22;27869;51.442;7.540;2022-12-04T10:14:18;1.70;99.90
42201;DHT22;27869;51.442;7.540;2022-12-04T10:17:00;1.70;99.90
42201;DHT22;27869;51.442;7.540;2022-12-04T10:19:36;1.80;99.90
42201;DHT22;27869;51.442;7.540;2022-12-04T10:22:11;1.80;99.90
42201;DHT22;27869;51.442;7.540;2022-12-04T10:24:42;1.80;99.90
42201;DHT22;27869;51.442;7.540;2022-12-04T10:27:18;1.80;99.90
42201;DHT22;27869;51.442;7.540;2022-12-04T10:29:49;1.80;99.90
42201;DHT22;27869;51.442;7.540;2022-12-04T10:32:21;1.80;99.90
42201;DHT22;27869;51.442;7.540;2022-12-04T10:34:52;1.80;99.90
42201;DHT22;27869;51.442;7.540;2022-12-04T10:37:21;1.80;99.90
42201;DHT22;27869;51.442;7.540;2022-12-04T10:39:51;1.80;99.90
42201;DHT22;27869;51.442;7.540;2022-12-04T10:42:26;1.80;99.90
42201;DHT22;27869;51.442;7.540;2022-12-04T10:44:54;1.80;99.90
42201;DHT22;27869;51.442;7.540;2022-12-04T10:47:22;1.80;99.90
42201;DHT22;27869;51.442;7.540;2022-12-04T10:49:56;1.90;99.90
42201;DHT22;27869;51.442;7.540;2022-12-04T10:52:24;1.90;99.90
42201;DHT22;27869;51.442;7.540;2022-12-04T10:54:53;1.90;99.90
42201;DHT22;27869;51.442;7.540;2022-12-04T10:57:35;1.90;99.90
42201;DHT22;27869;51.442;7.540;2022-12-04T11:00:18;1.90;99.90
42201;DHT22;27869;51.442;7.540;2022-12-04T11:02:50;1.90;99.90
42201;DHT22;27869;51.442;7.540;2022-12-04T11:05:26;1.90;99.90
42201;DHT22;27869;51.442;7.540;2022-12-04T11:07:55;2.00;99.90
42201;DHT22;27869;51.442;7.540;2022-12-04T11:10:24;2.00;99.90
42201;DHT22;27869;51.442;7.540;2022-12-04T11:12:56;2.00;99.90
42201;DHT22;27869;51.442;7.540;2022-12-04T11:15:24;2.00;99.90
42201;DHT22;27869;51.442;7.540;2022-12-04T11:17:51;2.00;99.90
42201;DHT22;27869;51.442;7.540;2022-12-04T11:20:20;2.10;99.90
42201;DHT22;27869;51.442;7.540;2022-12-04T11:22:50;2.10;99.90
42201;DHT22;27869;51.442;7.540;2022-12-04T11:25:19;2.10;99.90
42201;DHT22;27869;51.442;7.540;2022-12-04T11:27:48;2.10;99.90
42201;DHT22;27869;51.442;7.540;2022-12-04T11:30:29;2.10;99.90
42201;DHT22;27869;51.442;7.540;2022-12-04T11:32:57;2.20;99.90
42201;DHT22;27869;51.442;7.540;2022-12-04T11:35:26;2.20;99.90
42201;DHT22;27869;51.442;7.540;2022-12-04T11:37:56;2.20;99.90
42201;DHT22;27869;51.442;7.540;2022-12-04T11:40:24;2.20;99.90
42201;DHT22;27869;51.442;7.540;2022-12-04T11:43:02;2.20;99.90
42201;DHT22;27869;51.442;7.540;2022-12-04T11:45:32;2.20;99.90
42201;DHT22;27869;51.442;7.540;2022-12-04T11:48:03;2.20;99.90
42201;DHT22;27869;51.442;7.540;2022-12-04T11:50:37;2.20;99.90
42201;DHT22;27869;51.442;7.540;2022-12-04T11:53:13;2.20;99.90
42201;DHT22;27869;51.442;7.540;2022-12-04T11:55:57;2.20;99.90
42201;DHT22;27869;51.442;7.540;2022-12-04T11:59:01;2.20;99.90
42201;DHT22;27869;51.442;7.540;2022-12-04T12:01:40;2.20;99.90
42201;DHT22;27869;51.442;7.540;2022-12-04T12:04:26;2.20;99.90
42201;DHT22;27869;51.442;7.540;2022-12-04T12:07:01;2.20;99.90
42201;DHT22;27869;51.442;7.540;2022-12-04T12:09:33;2.20;99.90
42201;DHT22;27869;51.442;7.540;2022-12-04T12:12:07;2.20;99.90
42201;DHT22;27869;51.442;7.540;2022-12-04T12:14:40;2.30;99.90
42201;DHT22;27869;51.442;7.540;2022-12-04T12:17:16;2.30;99.90
42201;DHT22;27869;51.442;7.540;2022-12-04T12:19:59;2.30;99.90
42201;DHT22;27869;51.442;7.540;2022-12-04T12:22:45;2.30;99.90
42201;DHT22;27869;51.442;7.540;2022-12-04T12:25:18;2.30;99.90
42201;DHT22;27869;51.442;7.540;2022-12-04T12:28:04;2.30;99.90
42201;DHT22;27869;51.442;7.540;2022-12-04T12:30:44;2.30;99.90
42201;DHT22;27869;51.442;7.540;2022-12-04T12:33:20;2.30;99.90
42201;DHT22;27869;51.442;7.540;2022-12-04T12:35:56;2.40;99.90
42201;DHT22;27869;51.442;7.540;2022-12-04T12:38:25;2.30;99.90
42201;DHT22;27869;51.442;7.540;2022-12-04T12:40:57;2.30;99.90
42201;DHT22;27869;51.442;7.540;2022-12-04T12:43:28;2.30;99.90
42201;DHT22;27869;51.442;7.540;2022-12-04T12:45:57;2.30;99.90
42201;DHT22;27869;51.442;7.540;2022-12-04T12:48:31;2.30;99.90
42201;DHT22;27869;51.442;7.540;2022-12-04T12:51:03;2.30;99.90
42201;DHT22;27869;51.442;7.540;2022-12-04T12:53:35;2.30;99.90
42201;DHT22;27869;51.442;7.540;2022-12-04T12:56:05;2.30;99.90
42201;DHT22;27869;51.442;7.540;2022-12-04T12:58:38;2.30;99.90
42201;DHT22;27869;51.442;7.540;2022-12-04T13:01:12;2.30;99.90
42201;DHT22;27869;51.442;7.540;2022-12-04T13:03:48;2.30;99.90
42201;DHT22;27869;51.442;7.540;2022-12-04T13:06:26;2.30;99.90
42201;DHT22;27869;51.442;7.540;2022-12-04T13:09:02;2.30;99.90
42201;DHT22;27869;51.442;7.540;2022-12-04T13:11:31;2.30;99.90
42201;DHT22;27869;51.442;7.540;2022-12-04T13:14:00;2.30;99.90
42201;DHT22;27869;51.442;7.540;2022-12-04T13:16:32;2.30;99.90
42201;DHT22;27869;51.442;7.540;2022-12-04T13:19:07;2.30;99.90
42201;DHT22;27869;51.442;7.540;2022-12-04T13:21:40;2.40;99.90
42201;DHT22;27869;51.442;7.540;2022-12-04T13:24:31;2.40;99.90
42201;DHT22;27869;51.442;7.540;2022-12-04T13:27:06;2.40;99.90
42201;DHT22;27869;51.442;7.540;2022-12-04T13:29:48;2.40;99.90
42201;DHT22;27869;51.442;7.540;2022-12-04T13:32:36;2.40;99.90
42201;DHT22;27869;51.442;7.540;2022-12-04T13:35:17;2.40;99.90
42201;DHT22;27869;51.442;7.540;2022-12-04T13:37:55;2.40;99.90
42201;DHT22;27869;51.442;7.540;2022-12-04T13:40:36;2.40;99.90
42201;DHT22;27869;51.442;7.540;2022-12-04T13:43:26;2.50;99.90
42201;DHT22;27869;51.442;7.540;2022-12-04T13:45:56;2.50;99.90
42201;DHT22;27869;51.442;7.540;2022-12-04T13:48:30;2.50;99.90
42201;DHT22;27869;51.442;7.540;2022-12-04T13:51:04;2.50;99.90
42201;DHT22;27869;51.442;7.540;2022-12-04T13:53:34;2.50;99.90
42201;DHT22;27869;51.442;7.540;2022-12-04T13:56:05;2.50;99.90
42201;DHT22;27869;51.442;7.540;2022-12-04T13:58:33;2.50;99.90
42201;DHT22;27869;51.442;7.540;2022-12-04T14:01:03;2.50;99.90
42201;DHT22;27869;51.442;7.540;2022-12-04T14:03:32;2.50;99.90
42201;DHT22;27869;51.442;7.540;2022-12-04T14:06:03;2.50;99.90
42201;DHT22;27869;51.442;7.540;2022-12-04T14:08:36;2.50;99.90
42201;DHT22;27869;51.442;7.540;2022-12-04T14:11:07;2.50;99.90
42201;DHT22;27869;51.442;7.540;2022-12-04T14:13:42;2.60;99.90
42201;DHT22;27869;51.442;7.540;2022-12-04T14:16:19;2.60;99.90
42201;DHT22;27869;51.442;7.540;2022-12-04T14:18:48;2.60;99.90
42201;DHT22;27869;51.442;7.540;2022-12-04T14:21:16;2.60;99.90
42201;DHT22;27869;51.442;7.540;2022-12-04T14:23:43;2.60;99.90
42201;DHT22;27869;51.442;7.540;2022-12-04T14:26:23;2.60;99.90
42201;DHT22;27869;51.442;7.540;2022-12-04T14:28:51;2.60;99.90
42201;DHT22;27869;51.442;7.540;2022-12-04T14:31:29;2.60;99.90
42201;DHT22;27869;51.442;7.540;2022-12-04T14:33:58;2.60;99.90
42201;DHT22;27869;51.442;7.540;2022-12-04T14:36:29;2.60;99.90
42201;DHT22;27869;51.442;7.540;2022-12-04T14:39:03;2.60;99.90
42201;DHT22;27869;51.442;7.540;2022-12-04T14:41:33;2.50;99.90
42201;DHT22;27869;51.442;7.540;2022-12-04T14:44:00;2.50;99.90
42201;DHT22;27869;51.442;7.540;2022-12-04T14:46:35;2.50;99.90
42201;DHT22;27869;51.442;7.540;2022-12-04T14:49:18;2.60;99.90
42201;DHT22;27869;51.442;7.540;2022-12-04T14:51:54;2.50;99.90
42201;DHT22;27869;51.442;7.540;2022-12-04T14:54:29;2.50;99.90
42201;DHT22;27869;51.442;7.540;2022-12-04T14:57:11;2.60;99.90
42201;DHT22;27869;51.442;7.540;2022-12-04T14:59:44;2.50;99.90
42201;DHT22;27869;51.442;7.540;2022-12-04T15:02:16;2.50;99.90
42201;DHT22;27869;51.442;7.540;2022-12-04T15:04:44;2.50;99.90
42201;DHT22;27869;51.442;7.540;2022-12-04T15:07:18;2.50;99.90
42201;DHT22;27869;51.442;7.540;2022-12-04T15:09:50;2.60;99.90
42201;DHT22;27869;51.442;7.540;2022-12-04T15:12:39;2.50;99.90
42201;DHT22;27869;51.442;7.540;2022-12-04T15:15:13;2.60;99.90
42201;DHT22;27869;51.442;7.540;2022-12-04T15:17:42;2.60;99.90
42201;DHT22;27869;51.442;7.540;2022-12-04T15:20:13;2.60;99.90
42201;DHT22;27869;51.442;7.540;2022-12-04T15:22:43;2.50;99.90
42201;DHT22;27869;51.442;7.540;2022-12-04T15:25:18;2.50;99.90
42201;DHT22;27869;51.442;7.540;2022-12-04T15:27:47;2.50;99.90
42201;DHT22;27869;51.442;7.540;2022-12-04T15:30:18;2.50;99.90
42201;DHT22;27869;51.442;7.540;2022-12-04T15:32:49;2.50;99.90
42201;DHT22;27869;51.442;7.540;2022-12-04T15:35:21;2.50;99.90
42201;DHT22;27869;51.442;7.540;2022-12-04T15:37:50;2.50;99.90
42201;DHT22;27869;51.442;7.540;2022-12-04T15:40:20;2.50;99.90
42201;DHT22;27869;51.442;7.540;2022-12-04T15:42:47;2.50;99.90
42201;DHT22;27869;51.442;7.540;2022-12-04T15:45:28;2.60;99.90
42201;DHT22;27869;51.442;7.540;2022-12-04T15:47:59;2.60;99.90
42201;DHT22;27869;51.442;7.540;2022-12-04T15:50:27;2.50;99.90
42201;DHT22;27869;51.442;7.540;2022-12-04T15:53:05;2.50;99.90
42201;DHT22;27869;51.442;7.540;2022-12-04T15:55:35;2.50;99.90
42201;DHT22;27869;51.442;7.540;2022-12-04T15:58:06;2.50;99.90
42201;DHT22;27869;51.442;7.540;2022-12-04T16:00:36;2.50;99.90
42201;DHT22;27869;51.442;7.540;2022-12-04T16:03:06;2.60;99.90
42201;DHT22;27869;51.442;7.540;2022-12-04T16:05:46;2.50;99.90
42201;DHT22;27869;51.442;7.540;2022-12-04T16:08:27;2.60;99.90
42201;DHT22;27869;51.442;7.540;2022-12-04T16:10:58;2.60;99.90